createdAt,value
2023-04-21T00:01:22.704Z,8.20
2023-04-21T00:03:51.265Z,8.19
2023-04-21T00:06:23.066Z,8.19
2023-04-21T00:08:51.943Z,8.17
2023-04-21T00:11:20.936Z,8.15
2023-04-21T00:13:49.318Z,8.15
2023-04-21T00:16:18.347Z,8.14
2023-04-21T00:18:48.189Z,8.14
2023-04-21T00:21:18.042Z,8.15
2023-04-21T00:23:47.660Z,8.14
2023-04-21T00:26:16.149Z,8.13
2023-04-21T00:28:45.960Z,8.13
2023-04-21T00:31:14.678Z,8.15
2023-04-21T00:33:43.355Z,8.17
2023-04-21T00:36:11.637Z,8.19
2023-04-21T00:38:40.741Z,8.21
2023-04-21T00:41:10.451Z,8.24
2023-04-21T00:44:03.721Z,8.25
2023-04-21T00:46:37.319Z,8.27
2023-04-21T00:49:08.098Z,8.27
2023-04-21T00:51:37.953Z,8.28
2023-04-21T00:54:08.905Z,8.26
2023-04-21T00:56:37.396Z,8.25
2023-04-21T00:59:05.876Z,8.23
2023-04-21T01:01:44.889Z,8.21
2023-04-21T01:04:13.828Z,8.20
2023-04-21T01:06:43.694Z,8.17
2023-04-21T01:09:12.826Z,8.18
2023-04-21T01:11:41.517Z,8.20
2023-04-21T01:14:10.098Z,8.18
2023-04-21T01:16:40.112Z,8.15
2023-04-21T01:19:09.117Z,8.13
2023-04-21T01:21:43.337Z,8.10
2023-04-21T01:24:12.127Z,8.05
2023-04-21T01:26:40.721Z,8.01
2023-04-21T01:29:09.818Z,7.96
2023-04-21T01:31:38.553Z,7.94
2023-04-21T01:34:09.973Z,7.92
2023-04-21T01:36:38.659Z,7.91
2023-04-21T01:39:07.584Z,7.88
2023-04-21T01:41:36.348Z,7.88
2023-04-21T01:44:06.065Z,7.88
2023-04-21T01:46:34.815Z,7.88
2023-04-21T01:49:04.579Z,7.91
2023-04-21T01:51:34.698Z,7.93
2023-04-21T01:54:03.080Z,7.95
2023-04-21T01:56:31.635Z,7.97
2023-04-21T01:59:01.509Z,7.97
2023-04-21T02:01:30.234Z,7.99
2023-04-21T02:03:58.860Z,8.02
2023-04-21T02:06:27.667Z,8.03
2023-04-21T02:08:55.951Z,8.06
2023-04-21T02:11:25.765Z,8.07
2023-04-21T02:13:55.082Z,8.09
2023-04-21T02:16:29.434Z,8.11
2023-04-21T02:18:58.387Z,8.11
2023-04-21T02:21:29.025Z,8.11
2023-04-21T02:23:57.514Z,8.11
2023-04-21T02:26:27.949Z,8.09
2023-04-21T02:28:56.335Z,8.09
2023-04-21T02:31:25.397Z,8.08
2023-04-21T02:33:54.949Z,8.08
2023-04-21T02:36:23.445Z,8.08
2023-04-21T02:38:52.329Z,8.07
2023-04-21T02:41:20.812Z,8.06
2023-04-21T02:43:52.479Z,8.07
2023-04-21T02:46:23.853Z,8.06
2023-04-21T02:48:52.638Z,8.08
2023-04-21T02:51:21.124Z,8.06
2023-04-21T02:53:50.114Z,8.06
2023-04-21T02:56:18.990Z,8.07
2023-04-21T02:58:47.387Z,8.07
2023-04-21T03:01:16.758Z,8.08
2023-04-21T03:03:45.604Z,8.08
2023-04-21T03:06:14.678Z,8.06
2023-04-21T03:08:43.284Z,8.07
2023-04-21T03:11:11.963Z,8.06
2023-04-21T03:13:40.655Z,8.05
2023-04-21T03:16:09.194Z,8.04
2023-04-21T03:18:38.039Z,8.02
2023-04-21T03:21:06.624Z,8.05
2023-04-21T03:23:35.121Z,8.08
2023-04-21T03:26:09.948Z,8.12
2023-04-21T03:28:38.750Z,8.13
2023-04-21T03:31:08.043Z,8.14
2023-04-21T03:33:36.637Z,8.18
2023-04-21T03:36:05.478Z,8.21
2023-04-21T03:38:34.324Z,8.24
2023-04-21T03:41:05.459Z,8.26
2023-04-21T03:43:33.855Z,8.31
2023-04-21T03:46:02.180Z,8.34
2023-04-21T03:48:32.157Z,8.34
2023-04-21T03:51:00.438Z,8.35
2023-04-21T03:53:28.926Z,8.36
2023-04-21T03:55:57.314Z,8.35
2023-04-21T03:58:26.325Z,8.34
2023-04-21T04:00:54.922Z,8.35
2023-04-21T04:03:26.545Z,8.37
2023-04-21T04:05:55.046Z,8.40
2023-04-21T04:08:24.973Z,8.43
2023-04-21T04:10:53.590Z,8.46
2023-04-21T04:13:22.773Z,8.48
2023-04-21T04:15:51.235Z,8.51
2023-04-21T04:18:20.246Z,8.52
2023-04-21T04:20:48.735Z,8.53
2023-04-21T04:23:17.013Z,8.52
2023-04-21T04:25:45.703Z,8.54
2023-04-21T04:28:15.835Z,8.55
2023-04-21T04:30:45.648Z,8.55
2023-04-21T04:33:14.438Z,8.57
2023-04-21T04:35:42.719Z,8.59
2023-04-21T04:38:11.411Z,8.61
2023-04-21T04:40:39.807Z,8.63
2023-04-21T04:43:10.674Z,8.63
2023-04-21T04:45:39.126Z,8.65
2023-04-21T04:48:07.603Z,8.67
2023-04-21T04:50:35.995Z,8.68
2023-04-21T04:53:04.475Z,8.71
2023-04-21T04:55:33.166Z,8.75
2023-04-21T04:58:02.201Z,8.80
2023-04-21T05:00:32.095Z,8.85
2023-04-21T05:03:01.343Z,8.91
2023-04-21T05:05:30.337Z,8.96
2023-04-21T05:08:20.198Z,8.99
2023-04-21T05:10:49.058Z,8.97
2023-04-21T05:13:18.108Z,9.00
2023-04-21T05:15:46.450Z,9.00
2023-04-21T05:18:15.043Z,9.01
2023-04-21T05:20:43.522Z,9.03
2023-04-21T05:23:12.116Z,9.09
2023-04-21T05:25:40.595Z,9.14
2023-04-21T05:28:09.286Z,9.19
2023-04-21T05:30:37.981Z,9.23
2023-04-21T05:33:06.550Z,9.27
2023-04-21T05:35:37.712Z,9.30
2023-04-21T05:38:07.031Z,9.31
2023-04-21T05:40:35.510Z,9.31
2023-04-21T05:43:03.993Z,9.31
2023-04-21T05:45:32.387Z,9.32
2023-04-21T05:48:00.771Z,9.36
2023-04-21T05:50:34.184Z,9.38
2023-04-21T05:53:02.763Z,9.43
2023-04-21T05:55:31.134Z,9.46
2023-04-21T05:57:59.724Z,9.52
2023-04-21T06:00:28.108Z,9.56
2023-04-21T06:02:57.491Z,9.60
2023-04-21T06:05:26.524Z,9.61
2023-04-21T06:07:55.106Z,9.62
2023-04-21T06:10:23.492Z,9.64
2023-04-21T06:12:51.867Z,9.68
2023-04-21T06:15:20.254Z,9.68
2023-04-21T06:17:54.258Z,9.74
2023-04-21T06:20:22.667Z,9.79
2023-04-21T06:22:51.251Z,9.85
2023-04-21T06:25:19.731Z,9.88
2023-04-21T06:27:48.324Z,9.93
2023-04-21T06:30:17.830Z,10.00
2023-04-21T06:32:47.920Z,10.06
2023-04-21T06:35:16.643Z,10.11
2023-04-21T06:37:45.435Z,10.13
2023-04-21T06:40:16.458Z,10.23
2023-04-21T06:42:45.074Z,10.37
2023-04-21T06:45:13.864Z,10.53
2023-04-21T06:47:42.510Z,10.65
2023-04-21T06:50:11.149Z,10.77
2023-04-21T06:52:39.748Z,10.88
2023-04-21T06:55:08.570Z,11.00
2023-04-21T06:57:36.915Z,11.09
2023-04-21T07:00:06.871Z,11.19
2023-04-21T07:02:35.610Z,11.29
2023-04-21T07:05:05.090Z,11.36
2023-04-21T07:07:34.039Z,11.40
2023-04-21T07:10:02.331Z,11.43
2023-04-21T07:12:30.602Z,11.48
2023-04-21T07:14:59.089Z,11.53
2023-04-21T07:17:27.617Z,11.56
2023-04-21T07:19:55.980Z,11.58
2023-04-21T07:22:24.351Z,11.71
2023-04-21T07:24:52.534Z,11.84
2023-04-21T07:27:21.322Z,12.00
2023-04-21T07:29:50.543Z,12.14
2023-04-21T07:32:19.316Z,12.26
2023-04-21T07:34:48.634Z,12.37
2023-04-21T07:37:18.338Z,12.47
2023-04-21T07:39:47.137Z,12.50
2023-04-21T07:42:15.631Z,12.57
2023-04-21T07:44:44.015Z,12.58
2023-04-21T07:47:12.797Z,12.54
2023-04-21T07:49:41.894Z,12.48
2023-04-21T07:52:10.507Z,12.49
2023-04-21T07:54:38.783Z,12.53
2023-04-21T07:57:07.656Z,12.60
2023-04-21T07:59:36.464Z,12.71
2023-04-21T08:02:05.692Z,12.76
2023-04-21T08:04:34.339Z,12.82
2023-04-21T08:07:03.843Z,12.93
2023-04-21T08:09:32.459Z,13.03
2023-04-21T08:12:02.795Z,13.12
2023-04-21T08:14:32.456Z,13.21
2023-04-21T08:17:01.153Z,13.33
2023-04-21T08:19:29.875Z,13.46
2023-04-21T08:21:59.005Z,13.67
2023-04-21T08:24:27.567Z,13.86
2023-04-21T08:26:55.979Z,13.97
2023-04-21T08:29:24.647Z,14.11
2023-04-21T08:31:53.254Z,14.29
2023-04-21T08:34:24.986Z,14.43
2023-04-21T08:36:55.037Z,14.50
2023-04-21T08:39:23.718Z,14.54
2023-04-21T08:41:53.025Z,14.56
2023-04-21T08:44:21.996Z,14.54
2023-04-21T08:46:51.591Z,14.52
2023-04-21T08:49:21.661Z,14.56
2023-04-21T08:51:50.336Z,14.56
2023-04-21T08:54:18.931Z,14.61
2023-04-21T08:56:49.517Z,14.71
2023-04-21T08:59:18.269Z,14.71
2023-04-21T09:02:06.056Z,14.68
2023-04-21T09:04:34.726Z,14.74
2023-04-21T09:07:03.578Z,14.87
2023-04-21T09:09:31.763Z,15.07
2023-04-21T09:12:00.179Z,15.15
2023-04-21T09:14:35.725Z,15.30
2023-04-21T09:17:05.588Z,15.41
2023-04-21T09:19:34.939Z,15.46
2023-04-21T09:22:04.315Z,15.53
2023-04-21T09:24:33.093Z,15.66
2023-04-21T09:27:04.873Z,15.67
2023-04-21T09:29:33.457Z,15.62
2023-04-21T09:32:02.050Z,15.50
2023-04-21T09:34:33.395Z,15.47
2023-04-21T09:37:03.837Z,15.52
2023-04-21T09:39:46.272Z,15.53
2023-04-21T09:42:29.703Z,15.62
2023-04-21T09:45:10.903Z,15.65
2023-04-21T09:47:53.787Z,15.85
2023-04-21T09:50:44.803Z,15.97
2023-04-21T09:53:17.223Z,16.03
2023-04-21T09:55:48.255Z,16.26
2023-04-21T09:58:19.840Z,16.38
2023-04-21T10:00:49.457Z,16.38
2023-04-21T10:03:20.378Z,16.48
2023-04-21T10:05:48.824Z,16.64
2023-04-21T10:08:17.578Z,16.70
2023-04-21T10:10:46.873Z,16.79
2023-04-21T10:13:16.794Z,16.64
2023-04-21T10:15:45.309Z,16.34
2023-04-21T10:18:18.716Z,16.15
2023-04-21T10:20:57.777Z,16.04
2023-04-21T10:23:30.696Z,15.90
2023-04-21T10:26:10.959Z,15.75
2023-04-21T10:28:44.860Z,15.55
2023-04-21T10:31:20.857Z,15.32
2023-04-21T10:34:13.482Z,15.15
2023-04-21T10:36:54.234Z,14.90
2023-04-21T10:39:29.973Z,14.65
2023-04-21T10:42:19.957Z,14.44
2023-04-21T10:44:59.194Z,14.20
2023-04-21T10:47:38.468Z,14.01
2023-04-21T10:50:28.196Z,13.87
2023-04-21T10:53:20.048Z,13.75
2023-04-21T10:55:55.652Z,13.67
2023-04-21T10:58:26.023Z,13.58
2023-04-21T11:00:56.213Z,13.50
2023-04-21T11:03:37.966Z,13.42
2023-04-21T11:06:20.053Z,13.35
2023-04-21T11:08:56.013Z,13.30
2023-04-21T11:11:24.966Z,13.25
2023-04-21T11:13:53.848Z,13.24
2023-04-21T11:16:22.912Z,13.26
2023-04-21T11:18:51.946Z,13.25
2023-04-21T11:21:21.777Z,13.25
2023-04-21T11:23:57.994Z,13.28
2023-04-21T11:26:45.541Z,13.41
2023-04-21T11:29:14.861Z,13.72
2023-04-21T11:31:46.761Z,13.98
2023-04-21T11:34:16.659Z,14.31
2023-04-21T11:36:46.600Z,14.53
2023-04-21T11:39:21.679Z,14.67
2023-04-21T11:41:52.232Z,14.80
2023-04-21T11:44:41.013Z,15.00
2023-04-21T11:47:21.454Z,15.21
2023-04-21T11:49:58.476Z,15.27
2023-04-21T11:52:30.004Z,15.22
2023-04-21T11:55:07.060Z,15.11
2023-04-21T11:57:36.698Z,14.98
2023-04-21T12:00:15.513Z,14.87
2023-04-21T12:02:44.447Z,14.88
2023-04-21T12:05:14.577Z,14.93
2023-04-21T12:07:45.718Z,14.97
2023-04-21T12:10:17.139Z,15.00
2023-04-21T12:12:46.291Z,15.06
2023-04-21T12:15:21.720Z,15.02
2023-04-21T12:17:54.960Z,14.99
2023-04-21T12:20:25.441Z,14.91
2023-04-21T12:22:53.672Z,14.86
2023-04-21T12:25:21.976Z,14.79
2023-04-21T12:27:52.705Z,14.70
2023-04-21T12:30:23.946Z,14.61
2023-04-21T12:32:54.522Z,14.55
2023-04-21T12:35:23.847Z,14.53
2023-04-21T12:37:52.590Z,14.51
2023-04-21T12:40:21.473Z,14.55
2023-04-21T12:42:49.852Z,14.65
2023-04-21T12:45:18.588Z,14.71
2023-04-21T12:47:47.367Z,14.74
2023-04-21T12:50:16.322Z,14.77
2023-04-21T12:52:44.711Z,14.76
2023-04-21T12:55:13.821Z,14.82
2023-04-21T12:57:42.030Z,14.92
2023-04-21T13:00:13.110Z,14.97
2023-04-21T13:02:42.310Z,14.97
2023-04-21T13:05:12.996Z,14.94
2023-04-21T13:07:41.794Z,14.87
2023-04-21T13:10:11.452Z,14.80
2023-04-21T13:12:41.637Z,14.82
2023-04-21T13:15:10.857Z,14.88
2023-04-21T13:17:39.283Z,15.08
2023-04-21T13:20:08.502Z,16.24
2023-04-21T13:22:36.899Z,17.21
2023-04-21T13:25:05.916Z,17.95
2023-04-21T13:27:34.381Z,19.31
2023-04-21T13:30:03.955Z,20.45
2023-04-21T13:32:32.834Z,21.07
2023-04-21T13:35:01.893Z,22.20
2023-04-21T13:37:30.584Z,23.19
2023-04-21T13:39:58.990Z,24.06
2023-04-21T13:42:29.241Z,25.07
2023-04-21T13:44:58.697Z,25.40
2023-04-21T13:47:27.759Z,24.90
2023-04-21T13:49:56.415Z,24.16
2023-04-21T13:52:25.151Z,23.31
2023-04-21T13:54:54.491Z,22.30
2023-04-21T13:57:23.086Z,21.33
2023-04-21T13:59:51.611Z,20.62
2023-04-21T14:02:23.480Z,20.04
2023-04-21T14:04:53.616Z,19.49
2023-04-21T14:07:23.931Z,18.97
2023-04-21T14:09:53.505Z,18.43
2023-04-21T14:12:21.994Z,17.89
2023-04-21T14:14:50.483Z,17.43
2023-04-21T14:17:18.981Z,16.99
2023-04-21T14:19:47.600Z,16.56
2023-04-21T14:22:16.155Z,16.16
2023-04-21T14:24:44.751Z,15.76
2023-04-21T14:27:13.028Z,15.37
2023-04-21T14:29:41.712Z,14.90
2023-04-21T14:32:10.537Z,14.45
2023-04-21T14:34:39.207Z,14.11
2023-04-21T14:37:07.677Z,13.82
2023-04-21T14:39:36.535Z,13.55
2023-04-21T14:42:05.063Z,13.29
2023-04-21T14:44:34.579Z,13.20
2023-04-21T14:47:09.738Z,13.22
2023-04-21T14:49:39.626Z,13.23
2023-04-21T14:52:08.291Z,13.22
2023-04-21T14:54:36.583Z,13.26
2023-04-21T14:57:18.900Z,13.31
2023-04-21T14:59:51.604Z,13.37
2023-04-21T15:02:21.907Z,13.43
2023-04-21T15:04:51.704Z,13.48
2023-04-21T15:07:24.334Z,13.51
2023-04-21T15:09:53.699Z,13.46
2023-04-21T15:12:22.127Z,13.48
2023-04-21T15:14:51.024Z,13.51
2023-04-21T15:17:19.491Z,13.84
2023-04-21T15:19:48.011Z,15.09
2023-04-21T15:22:16.463Z,16.00
2023-04-21T15:24:45.745Z,16.02
2023-04-21T15:27:14.673Z,15.87
2023-04-21T15:29:43.579Z,15.63
2023-04-21T15:32:12.070Z,15.40
2023-04-21T15:34:40.764Z,15.16
2023-04-21T15:37:12.868Z,14.93
2023-04-21T15:39:41.747Z,14.72
2023-04-21T15:42:10.298Z,14.49
2023-04-21T15:44:39.837Z,14.31
2023-04-21T15:47:08.701Z,14.13
2023-04-21T15:49:37.517Z,13.97
2023-04-21T15:52:07.273Z,13.84
2023-04-21T15:54:36.091Z,13.73
2023-04-21T15:57:05.774Z,13.67
2023-04-21T15:59:34.110Z,13.64
2023-04-21T16:02:02.548Z,13.87
2023-04-21T16:04:31.773Z,14.57
2023-04-21T16:07:00.484Z,15.19
2023-04-21T16:09:28.864Z,15.61
2023-04-21T16:11:57.601Z,15.79
2023-04-21T16:14:26.207Z,15.65
2023-04-21T16:16:54.600Z,15.43
2023-04-21T16:19:23.398Z,15.24
2023-04-21T16:21:51.683Z,15.06
2023-04-21T16:24:20.036Z,14.88
2023-04-21T16:26:48.476Z,14.73
2023-04-21T16:29:17.004Z,14.49
2023-04-21T16:31:46.775Z,14.27
2023-04-21T16:34:16.525Z,14.11
2023-04-21T16:36:44.999Z,13.96
2023-04-21T16:39:16.221Z,13.82
2023-04-21T16:41:44.931Z,13.67
2023-04-21T16:44:13.287Z,13.52
2023-04-21T16:46:42.088Z,13.39
2023-04-21T16:49:12.644Z,13.22
2023-04-21T16:51:44.863Z,13.01
2023-04-21T16:54:14.016Z,12.79
2023-04-21T16:56:42.703Z,12.58
2023-04-21T16:59:11.516Z,12.38
2023-04-21T17:01:40.077Z,12.18
2023-04-21T17:04:14.012Z,11.95
2023-04-21T17:06:42.796Z,11.79
2023-04-21T17:09:11.275Z,11.67
2023-04-21T17:11:40.248Z,11.59
2023-04-21T17:14:08.763Z,11.51
2023-04-21T17:16:37.196Z,11.46
2023-04-21T17:19:06.147Z,11.42
2023-04-21T17:21:34.634Z,11.37
2023-04-21T17:24:03.116Z,11.25
2023-04-21T17:26:31.401Z,11.15
2023-04-21T17:29:00.116Z,11.05
2023-04-21T17:31:30.691Z,10.99
2023-04-21T17:33:59.925Z,10.92
2023-04-21T17:36:31.501Z,10.87
2023-04-21T17:39:00.384Z,10.79
2023-04-21T17:41:28.869Z,10.75
2023-04-21T17:43:57.154Z,10.71
2023-04-21T17:46:26.549Z,10.67
2023-04-21T17:48:55.314Z,10.63
2023-04-21T17:51:24.872Z,10.60
2023-04-21T17:53:53.321Z,10.55
2023-04-21T17:56:22.656Z,10.50
2023-04-21T17:58:51.665Z,10.46
2023-04-21T18:01:21.104Z,10.41
2023-04-21T18:03:49.650Z,10.36
2023-04-21T18:06:18.034Z,10.31
2023-04-21T18:08:46.833Z,10.26
2023-04-21T18:11:15.628Z,10.20
2023-04-21T18:13:44.328Z,10.12
2023-04-21T18:16:12.834Z,10.00
2023-04-21T18:18:41.913Z,9.86
2023-04-21T18:21:10.202Z,9.80
2023-04-21T18:23:38.446Z,9.77
2023-04-21T18:26:08.598Z,9.72
2023-04-21T18:28:36.991Z,9.68
2023-04-21T18:31:07.076Z,9.62
2023-04-21T18:33:35.597Z,9.55
2023-04-21T18:36:04.278Z,9.50
2023-04-21T18:38:33.183Z,9.48
2023-04-21T18:41:01.768Z,9.44
2023-04-21T18:43:30.048Z,9.38
2023-04-21T18:45:58.743Z,9.37
2023-04-21T18:48:27.125Z,9.39
2023-04-21T18:50:55.612Z,9.39
2023-04-21T18:53:23.891Z,9.35
2023-04-21T18:55:52.172Z,9.35
2023-04-21T18:58:20.469Z,9.33
2023-04-21T19:00:48.958Z,9.29
2023-04-21T19:03:18.893Z,9.23
2023-04-21T19:05:47.444Z,9.14
2023-04-21T19:10:44.942Z,8.97
2023-04-21T19:13:13.543Z,8.94
2023-04-21T19:15:42.125Z,8.90
2023-04-21T19:18:10.643Z,8.83
2023-04-21T19:20:39.203Z,8.76
2023-04-21T19:23:07.578Z,8.70
2023-04-21T19:25:36.597Z,8.68
2023-04-21T19:28:06.710Z,8.67
2023-04-21T19:30:35.499Z,8.66
2023-04-21T19:33:05.522Z,8.66
2023-04-21T19:35:34.107Z,8.67
2023-04-21T19:38:02.488Z,8.67
2023-04-21T19:40:31.055Z,8.66
2023-04-21T19:42:59.259Z,8.65
2023-04-21T19:45:27.644Z,8.65
2023-04-21T19:47:56.564Z,8.63
2023-04-21T19:50:25.236Z,8.60
2023-04-21T19:52:53.629Z,8.57
2023-04-21T19:55:22.660Z,8.52
2023-04-21T19:57:51.930Z,8.45
2023-04-21T20:00:20.836Z,8.42
2023-04-21T20:02:49.432Z,8.39
2023-04-21T20:05:18.127Z,8.36
2023-04-21T20:07:47.100Z,8.32
2023-04-21T20:10:15.498Z,8.30
2023-04-21T20:12:43.765Z,8.29
2023-04-21T20:15:13.396Z,8.27
2023-04-21T20:17:42.191Z,8.25
2023-04-21T20:20:11.331Z,8.21
2023-04-21T20:22:40.065Z,8.19
2023-04-21T20:25:08.645Z,8.09
2023-04-21T20:27:37.236Z,7.97
2023-04-21T20:30:07.994Z,7.92
2023-04-21T20:32:36.878Z,7.91
2023-04-21T20:35:07.583Z,7.88
2023-04-21T20:37:36.211Z,7.81
2023-04-21T20:40:08.439Z,7.77
2023-04-21T20:42:37.577Z,7.75
2023-04-21T20:45:06.998Z,7.72
2023-04-21T20:47:35.690Z,7.70
2023-04-21T20:50:05.071Z,7.67
2023-04-21T20:52:33.578Z,7.64
2023-04-21T20:55:01.968Z,7.60
2023-04-21T20:57:30.551Z,7.54
2023-04-21T20:59:58.929Z,7.45
2023-04-21T21:02:27.491Z,7.38
2023-04-21T21:04:56.415Z,7.33
2023-04-21T21:07:24.810Z,7.28
2023-04-21T21:09:53.196Z,7.28
2023-04-21T21:12:21.771Z,7.30
2023-04-21T21:14:50.898Z,7.30
2023-04-21T21:17:19.772Z,7.32
2023-04-21T21:19:49.501Z,7.35
2023-04-21T21:22:17.765Z,7.38
2023-04-21T21:24:46.776Z,7.38
2023-04-21T21:27:15.251Z,7.38
2023-04-21T21:29:44.657Z,7.39
2023-04-21T21:32:13.148Z,7.39
2023-04-21T21:34:41.532Z,7.40
2023-04-21T21:37:10.020Z,7.42
2023-04-21T21:39:38.553Z,7.44
2023-04-21T21:42:07.196Z,7.35
2023-04-21T21:44:36.605Z,7.29
2023-04-21T21:47:05.690Z,7.25
2023-04-21T21:49:34.290Z,7.22
2023-04-21T21:52:02.882Z,7.21
2023-04-21T21:54:31.708Z,7.19
2023-04-21T21:57:00.266Z,7.18
2023-04-21T21:59:28.650Z,7.18
2023-04-21T22:01:56.998Z,7.19
2023-04-21T22:04:25.341Z,7.23
2023-04-21T22:06:53.905Z,7.23
2023-04-21T22:09:22.398Z,7.22
2023-04-21T22:11:50.783Z,7.22
2023-04-21T22:14:23.445Z,7.19
2023-04-21T22:16:53.428Z,7.15
2023-04-21T22:19:22.045Z,7.13
2023-04-21T22:21:50.771Z,7.11
2023-04-21T22:24:19.350Z,7.11
2023-04-21T22:26:48.257Z,7.12
2023-04-21T22:29:17.150Z,7.12
2023-04-21T22:31:45.636Z,7.12
2023-04-21T22:34:16.849Z,7.12
2023-04-21T22:36:45.856Z,7.13
2023-04-21T22:39:14.374Z,7.14
2023-04-21T22:41:43.263Z,7.15
2023-04-21T22:44:13.569Z,7.18
2023-04-21T22:46:43.095Z,7.23
2023-04-21T22:49:12.097Z,7.27
2023-04-21T22:51:40.593Z,7.31
2023-04-21T22:54:09.073Z,7.35
2023-04-21T22:56:37.875Z,7.39
2023-04-21T22:59:06.665Z,7.43
2023-04-21T23:01:34.942Z,7.47
2023-04-21T23:04:03.512Z,7.52
2023-04-21T23:06:33.073Z,7.61
2023-04-21T23:09:01.554Z,7.68
2023-04-21T23:11:30.018Z,7.72
2023-04-21T23:13:58.407Z,7.75
2023-04-21T23:16:27.258Z,7.79
2023-04-21T23:18:56.101Z,7.80
2023-04-21T23:21:24.690Z,7.79
2023-04-21T23:23:53.067Z,7.76
2023-04-21T23:26:21.979Z,7.75
2023-04-21T23:28:50.456Z,7.73
2023-04-21T23:31:19.482Z,7.70
2023-04-21T23:33:48.349Z,7.71
2023-04-21T23:36:16.841Z,7.71
2023-04-21T23:38:45.415Z,7.72
2023-04-21T23:41:13.806Z,7.71
2023-04-21T23:43:42.190Z,7.69
2023-04-21T23:46:10.825Z,7.64
2023-04-21T23:48:39.366Z,7.59
2023-04-21T23:51:07.941Z,7.56
2023-04-21T23:53:36.555Z,7.59
2023-04-21T23:56:05.133Z,7.62
2023-04-21T23:58:36.484Z,7.65
